Terminal Aerodrome Forecast
Issued by NWS

Home | Current Version | Previous Version | Text Only | Print | Product List | Glossary On
Versions: 1 2 3 4 5 6 7 8 9 10 11 12 13 14 15 16
000
FTAK31 PAFA 201535 AAD
TAFAFA
TAF AMD
PAFA 201535Z 2016/2118 05004KT 1SM BR BKN002
      TEMPO 2016/2017 1/4SM FG
     FM201700 05005KT P6SM FEW060 SCT080
     FM202200 04004KT P6SM SCT080=

USA.gov is the U.S. government's official web portal to all federal, state and local government web resources and services.